Time;durP1;ratioP1;P1;durP2;ratioP2;P2;SDS_P1;SDS_P2;PMS_P1;PMS_P2;Temp;Humidity;BMP_temperature;BMP_pressure;BME280_temperature;BME280_humidity;BME280_pressure;Samples;Min_cycle;Max_cycle;Signal;HPM_P1;HPM_P2
2023/09/28 00:01:02;;;;;;;5.27;4.87;;;18.80;99.90;;;;;;4994382;28;20292;-87
2023/09/28 00:03:28;;;;;;;5.43;4.93;;;18.80;99.90;;;;;;4996791;28;20553;-87
2023/09/28 00:05:55;;;;;;;5.50;4.73;;;18.80;99.90;;;;;;4974095;28;20198;-86
2023/09/28 00:08:21;;;;;;;5.30;4.90;;;18.80;99.90;;;;;;4974252;28;20272;-88
2023/09/28 00:10:46;;;;;;;5.53;5.10;;;18.80;99.90;;;;;;4993159;28;20608;-87
2023/09/28 00:13:13;;;;;;;7.10;5.00;;;18.70;99.90;;;;;;4985666;28;20182;-87
2023/09/28 00:15:38;;;;;;;5.23;4.83;;;18.80;99.90;;;;;;4977903;28;20200;-87
2023/09/28 00:18:04;;;;;;;7.83;5.13;;;18.80;99.90;;;;;;4987543;28;20189;-87
2023/09/28 00:20:30;;;;;;;6.43;4.60;;;18.80;99.90;;;;;;4991666;28;20189;-87
2023/09/28 00:22:56;;;;;;;5.33;4.70;;;18.80;99.90;;;;;;4992144;28;20212;-87
2023/09/28 00:25:23;;;;;;;7.70;4.77;;;18.80;99.90;;;;;;4976444;28;20211;-87
2023/09/28 00:27:50;;;;;;;5.63;5.03;;;18.80;99.90;;;;;;4986029;28;20180;-87
2023/09/28 00:30:19;;;;;;;4.97;4.57;;;18.80;99.90;;;;;;4983606;28;20185;-87
2023/09/28 00:32:46;;;;;;;7.63;5.20;;;18.80;99.90;;;;;;4985348;28;20271;-87
2023/09/28 00:35:12;;;;;;;5.77;5.27;;;18.80;99.90;;;;;;4976039;28;20570;-87
2023/09/28 00:37:37;;;;;;;5.07;4.57;;;18.80;99.90;;;;;;4991903;28;20195;-87
2023/09/28 00:40:18;;;;;;;10.77;5.33;;;18.80;99.90;;;;;;4981062;28;20189;-87
2023/09/28 00:42:45;;;;;;;6.73;4.93;;;18.80;99.90;;;;;;4973407;28;20215;-87
2023/09/28 00:45:11;;;;;;;7.17;5.27;;;18.80;99.90;;;;;;4981931;28;20257;-87
2023/09/28 00:47:38;;;;;;;7.90;5.30;;;18.80;99.90;;;;;;4967895;28;20228;-87
2023/09/28 00:50:09;;;;;;;10.50;5.40;;;18.70;99.90;;;;;;4983909;28;20185;-87
2023/09/28 00:52:38;;;;;;;5.73;5.10;;;18.80;99.90;;;;;;4988905;28;20197;-87
2023/09/28 00:55:05;;;;;;;5.27;4.87;;;18.70;99.90;;;;;;4975948;28;20185;-87
2023/09/28 00:57:33;;;;;;;7.97;5.27;;;18.70;99.90;;;;;;4990867;28;20213;-86
2023/09/28 01:00:15;;;;;;;5.57;5.07;;;18.70;99.90;;;;;;4987685;28;20694;-87
2023/09/28 01:02:41;;;;;;;7.20;5.37;;;18.70;99.90;;;;;;4981499;28;20647;-87
2023/09/28 01:05:08;;;;;;;5.90;5.00;;;18.60;99.90;;;;;;4996957;28;20180;-87
2023/09/28 01:07:33;;;;;;;5.80;5.20;;;18.60;99.90;;;;;;4988933;28;20202;-86
2023/09/28 01:09:59;;;;;;;5.27;4.77;;;18.60;99.90;;;;;;4995832;28;20181;-86
2023/09/28 01:12:25;;;;;;;5.67;5.20;;;18.60;99.90;;;;;;4997079;28;20414;-86
2023/09/28 01:14:56;;;;;;;5.57;5.07;;;18.60;99.90;;;;;;4996062;28;20300;-87
2023/09/28 01:17:21;;;;;;;5.40;4.90;;;18.60;99.90;;;;;;4995270;28;20209;-87
2023/09/28 01:19:47;;;;;;;6.43;4.90;;;18.50;99.90;;;;;;4984107;28;20173;-87
2023/09/28 01:22:15;;;;;;;5.73;5.07;;;18.50;99.90;;;;;;4975386;28;20427;-87
2023/09/28 01:24:41;;;;;;;6.17;4.90;;;18.50;99.90;;;;;;4977605;28;20185;-87
2023/09/28 01:27:08;;;;;;;6.27;5.13;;;18.50;99.90;;;;;;4996359;28;20296;-88
2023/09/28 01:29:34;;;;;;;5.40;4.73;;;18.50;99.90;;;;;;4996370;28;20185;-86
2023/09/28 01:32:00;;;;;;;6.57;5.53;;;18.50;99.90;;;;;;4996088;28;20678;-87
2023/09/28 01:34:25;;;;;;;5.60;5.10;;;18.50;99.90;;;;;;4994202;28;20193;-86
2023/09/28 01:36:52;;;;;;;5.90;4.97;;;18.50;99.90;;;;;;4989120;28;20541;-87
2023/09/28 01:39:18;;;;;;;6.10;5.00;;;18.50;99.90;;;;;;4991840;28;20186;-87
2023/09/28 01:41:45;;;;;;;7.10;5.30;;;18.50;99.90;;;;;;4996608;28;20208;-87
2023/09/28 01:44:11;;;;;;;5.23;4.57;;;18.50;99.90;;;;;;4997088;28;20650;-86
2023/09/28 01:46:37;;;;;;;6.73;5.00;;;18.40;99.90;;;;;;4993310;28;20201;-86
2023/09/28 01:49:03;;;;;;;5.47;4.50;;;18.40;99.90;;;;;;4983715;28;20181;-86
2023/09/28 01:51:29;;;;;;;5.63;4.90;;;18.40;99.90;;;;;;4992528;28;20220;-86
2023/09/28 01:53:54;;;;;;;5.47;5.07;;;18.40;99.90;;;;;;4990789;28;20244;-86
2023/09/28 01:56:21;;;;;;;5.80;4.73;;;18.40;99.90;;;;;;4992600;28;20241;-86
2023/09/28 01:58:46;;;;;;;7.43;5.00;;;18.40;99.90;;;;;;4995007;28;20193;-86
2023/09/28 02:01:23;;;;;;;6.57;4.93;;;18.40;99.90;;;;;;4994937;28;20209;-86
2023/09/28 02:03:50;;;;;;;5.97;4.90;;;18.40;99.90;;;;;;4994906;28;20181;-86
2023/09/28 02:06:17;;;;;;;7.90;4.90;;;18.40;99.90;;;;;;4996250;28;20260;-86
2023/09/28 02:08:43;;;;;;;5.63;5.13;;;18.40;99.90;;;;;;4985493;28;20169;-86
2023/09/28 02:11:10;;;;;;;5.47;5.07;;;18.40;99.90;;;;;;4990344;28;20378;-86
2023/09/28 02:13:35;;;;;;;6.47;5.20;;;18.40;99.90;;;;;;4994865;28;20193;-87
2023/09/28 02:16:01;;;;;;;5.03;4.63;;;18.30;99.90;;;;;;4994976;28;20211;-87
2023/09/28 02:18:27;;;;;;;5.33;4.83;;;18.30;99.90;;;;;;4995277;28;20555;-86
2023/09/28 02:20:53;;;;;;;5.60;4.90;;;18.30;99.90;;;;;;4994118;28;20347;-86
2023/09/28 02:23:19;;;;;;;5.83;5.20;;;18.30;99.90;;;;;;4987086;28;20191;-86
2023/09/28 02:25:45;;;;;;;6.33;5.73;;;18.20;99.90;;;;;;4986095;28;20343;-87
2023/09/28 02:28:11;;;;;;;6.40;5.23;;;18.10;99.90;;;;;;4988338;28;20181;-86
2023/09/28 02:30:37;;;;;;;6.20;5.60;;;18.00;99.90;;;;;;4994150;28;20173;-86
2023/09/28 02:33:06;;;;;;;6.27;5.67;;;18.00;99.90;;;;;;4985767;28;20181;-86
2023/09/28 02:35:33;;;;;;;6.83;6.10;;;17.90;99.90;;;;;;4987812;28;20638;-86
2023/09/28 02:37:59;;;;;;;6.23;5.70;;;17.70;99.90;;;;;;4995358;28;20577;-86
2023/09/28 02:40:26;;;;;;;6.83;5.30;;;17.60;99.90;;;;;;4985944;28;20280;-86
2023/09/28 02:42:52;;;;;;;5.90;5.40;;;17.50;99.90;;;;;;4978215;28;20212;-86
2023/09/28 02:45:17;;;;;;;7.90;5.93;;;17.50;99.90;;;;;;4995900;28;20187;-86
2023/09/28 02:47:47;;;;;;;6.97;5.70;;;17.40;99.90;;;;;;4994577;28;20180;-86
2023/09/28 02:50:14;;;;;;;8.23;6.63;;;17.30;99.90;;;;;;4994004;28;20268;-88
2023/09/28 02:52:41;;;;;;;9.37;6.40;;;17.20;99.90;;;;;;4985679;28;20185;-86
2023/09/28 02:55:08;;;;;;;6.77;6.17;;;17.20;99.90;;;;;;4993061;28;20188;-87
2023/09/28 02:57:35;;;;;;;8.53;5.93;;;17.10;99.90;;;;;;4969438;28;20213;-86
2023/09/28 03:00:11;;;;;;;10.50;6.17;;;17.00;99.90;;;;;;4988889;28;20284;-87
2023/09/28 03:02:37;;;;;;;8.73;6.80;;;16.90;99.90;;;;;;4977038;28;20250;-85
2023/09/28 03:05:04;;;;;;;9.20;6.40;;;16.80;99.90;;;;;;4990214;28;20411;-87
2023/09/28 03:07:31;;;;;;;7.47;6.20;;;16.80;99.90;;;;;;4995462;28;20336;-86
2023/09/28 03:09:56;;;;;;;6.57;5.97;;;16.80;99.90;;;;;;4993036;28;20649;-86
2023/09/28 03:12:22;;;;;;;6.47;5.93;;;16.70;99.90;;;;;;4990923;28;20681;-86
2023/09/28 03:14:48;;;;;;;8.73;6.23;;;16.70;99.90;;;;;;4986160;28;20213;-87
2023/09/28 03:17:14;;;;;;;7.17;6.07;;;16.70;99.90;;;;;;4986989;28;20208;-87
2023/09/28 03:19:40;;;;;;;7.57;6.23;;;16.60;99.90;;;;;;4993397;28;20189;-87
2023/09/28 03:22:07;;;;;;;6.87;6.27;;;16.60;99.90;;;;;;4994635;28;20296;-86
2023/09/28 03:24:32;;;;;;;7.07;6.43;;;16.60;99.90;;;;;;4992971;28;20172;-86
2023/09/28 03:26:58;;;;;;;7.93;6.80;;;16.60;99.90;;;;;;4987887;28;20296;-87
2023/09/28 03:29:23;;;;;;;8.00;7.00;;;16.60;99.90;;;;;;4993522;28;20187;-86
2023/09/28 03:31:49;;;;;;;7.43;6.73;;;16.60;99.90;;;;;;4962581;28;20185;-86
2023/09/28 03:34:15;;;;;;;7.10;6.40;;;16.60;99.90;;;;;;4993937;28;20189;-86
2023/09/28 03:36:40;;;;;;;6.97;6.30;;;16.50;99.90;;;;;;4993583;28;20196;-86
2023/09/28 03:39:06;;;;;;;7.27;6.50;;;16.50;99.90;;;;;;4993571;28;20272;-86
2023/09/28 03:41:32;;;;;;;6.80;6.03;;;16.50;99.90;;;;;;4994504;28;20220;-86
2023/09/28 03:43:57;;;;;;;6.70;6.00;;;16.50;99.90;;;;;;4994865;28;20190;-86
2023/09/28 03:46:23;;;;;;;8.80;6.60;;;16.40;99.90;;;;;;4991719;28;20299;-87
2023/09/28 03:48:48;;;;;;;7.07;6.30;;;16.30;99.90;;;;;;4978725;28;20243;-86
2023/09/28 03:51:16;;;;;;;7.40;6.70;;;16.30;99.90;;;;;;4994140;28;20196;-86
2023/09/28 03:53:43;;;;;;;7.60;6.80;;;16.30;99.90;;;;;;4992136;28;20200;-86
2023/09/28 03:56:11;;;;;;;9.03;7.40;;;16.40;99.90;;;;;;4990404;28;20212;-86
2023/09/28 03:58:37;;;;;;;7.50;6.77;;;16.40;99.90;;;;;;4993651;28;20185;-87
2023/09/28 04:01:07;;;;;;;7.67;6.90;;;16.40;99.90;;;;;;4990234;28;20251;-86
2023/09/28 04:03:33;;;;;;;11.00;7.57;;;16.40;99.90;;;;;;4980931;28;20195;-86
2023/09/28 04:05:59;;;;;;;9.20;7.20;;;16.40;99.90;;;;;;4997405;28;20196;-87
2023/09/28 04:08:26;;;;;;;8.60;7.50;;;16.40;99.90;;;;;;4996518;28;20196;-87
2023/09/28 04:10:51;;;;;;;9.57;7.37;;;16.40;99.90;;;;;;4987139;28;20235;-87
2023/09/28 04:13:17;;;;;;;8.27;7.27;;;16.30;99.90;;;;;;4992703;28;20181;-86
2023/09/28 04:15:42;;;;;;;9.27;8.37;;;16.30;99.90;;;;;;4994434;28;20200;-87
2023/09/28 04:18:08;;;;;;;8.77;7.97;;;16.30;99.90;;;;;;4993709;28;20256;-87
2023/09/28 04:20:35;;;;;;;10.23;7.57;;;16.30;99.90;;;;;;4993507;28;20247;-87
2023/09/28 04:23:05;;;;;;;9.20;7.43;;;16.30;99.90;;;;;;4993302;28;20208;-87
2023/09/28 04:25:32;;;;;;;8.77;7.97;;;16.30;99.90;;;;;;4973987;28;20315;-87
2023/09/28 04:27:57;;;;;;;8.90;7.50;;;16.30;99.90;;;;;;4994761;28;20209;-87
2023/09/28 04:30:23;;;;;;;8.97;8.07;;;16.20;99.90;;;;;;4993812;28;20192;-87
2023/09/28 04:32:50;;;;;;;10.27;8.07;;;16.10;99.90;;;;;;4986177;28;20208;-87
2023/09/28 04:35:17;;;;;;;9.77;7.37;;;16.10;99.90;;;;;;4998005;28;20192;-86
2023/09/28 04:37:45;;;;;;;9.07;8.17;;;16.00;99.90;;;;;;4997552;28;20614;-87
2023/09/28 04:40:13;;;;;;;8.90;8.00;;;15.90;99.90;;;;;;4993657;28;20176;-87
2023/09/28 04:42:38;;;;;;;9.93;7.73;;;15.90;99.90;;;;;;4980416;28;20695;-87
2023/09/28 04:45:05;;;;;;;12.57;8.27;;;15.80;99.90;;;;;;4973257;28;20242;-87
2023/09/28 04:47:32;;;;;;;10.77;9.23;;;15.80;99.90;;;;;;4998328;28;20236;-87
2023/09/28 04:49:58;;;;;;;12.67;9.60;;;15.70;99.90;;;;;;4998267;28;20176;-87
2023/09/28 04:52:24;;;;;;;10.77;9.73;;;15.70;99.90;;;;;;4994461;28;20189;-86
2023/09/28 04:54:51;;;;;;;13.43;10.40;;;15.70;99.90;;;;;;4996356;28;20188;-87
2023/09/28 04:57:20;;;;;;;10.67;9.60;;;15.70;99.90;;;;;;4997570;28;20258;-86
2023/09/28 04:59:45;;;;;;;11.20;10.07;;;15.60;99.90;;;;;;4994279;28;20208;-86
2023/09/28 05:02:12;;;;;;;13.90;11.73;;;15.60;99.90;;;;;;4986316;28;20570;-86
2023/09/28 05:04:39;;;;;;;14.17;12.67;;;15.60;99.90;;;;;;4995258;28;20690;-86
2023/09/28 05:07:05;;;;;;;15.80;12.47;;;15.50;99.90;;;;;;4996895;28;20204;-86
2023/09/28 05:09:30;;;;;;;13.70;12.20;;;15.50;99.90;;;;;;4997978;28;20192;-86
2023/09/28 05:11:59;;;;;;;17.53;11.90;;;15.50;99.90;;;;;;4964251;28;20199;-86
2023/09/28 05:14:25;;;;;;;14.27;11.17;;;15.60;99.90;;;;;;4986213;28;20272;-86
2023/09/28 05:16:53;;;;;;;13.63;12.20;;;15.60;99.90;;;;;;4995948;28;20223;-85
2023/09/28 05:19:19;;;;;;;13.53;12.20;;;15.50;99.90;;;;;;4996539;28;20193;-86
2023/09/28 05:21:45;;;;;;;16.80;12.20;;;15.60;99.90;;;;;;4992633;28;20212;-86
2023/09/28 05:24:10;;;;;;;14.03;12.50;;;15.50;99.90;;;;;;4979565;28;20185;-86
2023/09/28 05:26:37;;;;;;;14.00;11.97;;;15.50;99.90;;;;;;4997257;28;20201;-88
2023/09/28 05:29:04;;;;;;;12.27;10.97;;;15.60;99.90;;;;;;4996215;28;20651;-88
2023/09/28 05:31:30;;;;;;;15.30;11.00;;;15.60;99.90;;;;;;4996989;28;20235;-85
2023/09/28 05:33:56;;;;;;;12.33;11.10;;;15.60;99.90;;;;;;4996550;28;20188;-85
2023/09/28 05:36:22;;;;;;;11.70;10.47;;;15.70;99.90;;;;;;4990222;28;20227;-86
2023/09/28 05:38:47;;;;;;;12.03;9.97;;;15.60;99.90;;;;;;4996450;28;20189;-86
2023/09/28 05:41:13;;;;;;;11.10;9.80;;;15.60;99.90;;;;;;4994909;28;20212;-86
2023/09/28 05:43:39;;;;;;;11.07;9.97;;;15.50;99.90;;;;;;4994525;28;20242;-86
2023/09/28 05:46:04;;;;;;;14.40;9.77;;;15.50;99.90;;;;;;4995946;28;20227;-86
2023/09/28 05:48:30;;;;;;;13.03;10.20;;;15.40;99.90;;;;;;4973490;28;20209;-85
2023/09/28 05:50:56;;;;;;;12.00;10.10;;;15.40;99.90;;;;;;4996240;28;20239;-86
2023/09/28 05:53:22;;;;;;;21.23;9.63;;;15.50;99.90;;;;;;4996854;28;20183;-86
2023/09/28 05:55:51;;;;;;;13.93;10.93;;;15.50;99.90;;;;;;4997977;28;20282;-86
2023/09/28 05:58:17;;;;;;;12.57;11.27;;;15.50;99.90;;;;;;4979654;28;20180;-86
2023/09/28 06:00:43;;;;;;;13.17;10.70;;;15.50;99.90;;;;;;4979961;28;20205;-86
2023/09/28 06:03:09;;;;;;;13.20;10.33;;;15.60;99.90;;;;;;4984430;28;20291;-86
2023/09/28 06:05:36;;;;;;;12.03;10.40;;;15.60;99.90;;;;;;4976829;28;20243;-86
2023/09/28 06:08:02;;;;;;;14.40;10.00;;;15.70;99.90;;;;;;4997763;28;20604;-86
2023/09/28 06:10:27;;;;;;;12.57;9.73;;;15.80;99.90;;;;;;4994979;28;20192;-87
2023/09/28 06:12:54;;;;;;;15.20;9.43;;;15.90;99.90;;;;;;4986240;28;20192;-87
2023/09/28 06:15:19;;;;;;;11.50;8.17;;;15.90;99.90;;;;;;4978218;28;20468;-87
2023/09/28 06:17:46;;;;;;;12.30;9.63;;;16.00;99.90;;;;;;4988666;28;20215;-88
2023/09/28 06:20:12;;;;;;;10.30;9.13;;;16.10;99.90;;;;;;4989099;28;20184;-86
2023/09/28 06:22:38;;;;;;;10.60;8.70;;;16.20;99.90;;;;;;4985414;28;20292;-86
2023/09/28 06:25:04;;;;;;;17.87;10.10;;;16.30;99.90;;;;;;4994692;28;20675;-86
2023/09/28 06:27:30;;;;;;;12.53;8.20;;;16.40;99.90;;;;;;4993797;28;20193;-86
2023/09/28 06:29:56;;;;;;;24.10;9.40;;;16.50;99.90;;;;;;4986850;28;20177;-86
2023/09/28 06:32:22;;;;;;;19.47;8.83;;;16.60;99.90;;;;;;4994027;28;20180;-86
2023/09/28 06:34:47;;;;;;;16.73;8.90;;;16.80;99.90;;;;;;4985893;28;20178;-86
2023/09/28 06:37:15;;;;;;;14.57;8.20;;;17.00;99.90;;;;;;4994006;28;20200;-86
2023/09/28 06:39:40;;;;;;;12.63;7.87;;;17.10;99.90;;;;;;4987187;28;20204;-86
2023/09/28 06:42:06;;;;;;;10.20;7.60;;;17.30;99.90;;;;;;4994626;28;20291;-86
2023/09/28 06:44:38;;;;;;;8.00;7.07;;;17.50;99.90;;;;;;4993118;28;20183;-86
2023/09/28 06:47:03;;;;;;;10.30;6.93;;;17.90;99.90;;;;;;4993939;28;20224;-85
2023/09/28 06:49:29;;;;;;;8.00;5.83;;;18.40;99.90;;;;;;4982593;28;20263;-86
2023/09/28 06:51:57;;;;;;;6.73;6.03;;;18.70;99.90;;;;;;4993548;28;20181;-86
2023/09/28 06:54:23;;;;;;;10.00;6.47;;;19.20;99.90;;;;;;4995190;28;20308;-85
2023/09/28 06:56:48;;;;;;;6.93;5.90;;;19.60;99.90;;;;;;4993672;28;20224;-86
2023/09/28 06:59:16;;;;;;;6.03;5.43;;;20.10;99.90;;;;;;4992967;28;20667;-86
2023/09/28 07:01:42;;;;;;;6.68;5.78;;;20.50;99.90;;;;;;4993119;28;20208;-85
2023/09/28 07:04:08;;;;;;;8.05;5.90;;;20.90;99.90;;;;;;4985368;28;20177;-87
2023/09/28 07:06:33;;;;;;;9.15;5.72;;;21.20;99.90;;;;;;4994824;28;20196;-86
2023/09/28 07:08:59;;;;;;;10.52;5.88;;;21.70;99.90;;;;;;4977428;28;20181;-87
2023/09/28 07:11:26;;;;;;;11.27;6.03;;;22.00;99.90;;;;;;4992919;28;20622;-87
2023/09/28 07:13:52;;;;;;;5.97;5.38;;;22.40;99.90;;;;;;4993859;28;20280;-87
2023/09/28 07:16:18;;;;;;;12.80;5.05;;;22.70;99.90;;;;;;4994039;28;20227;-87
2023/09/28 07:18:43;;;;;;;4.53;4.10;;;23.10;99.90;;;;;;4993050;28;20176;-87
2023/09/28 07:21:09;;;;;;;6.20;4.30;;;23.50;99.90;;;;;;4993046;28;20180;-87
2023/09/28 07:23:36;;;;;;;6.05;5.25;;;23.80;99.90;;;;;;4994336;28;20207;-86
2023/09/28 07:26:02;;;;;;;5.72;5.00;;;24.10;99.90;;;;;;4994416;28;20242;-88
2023/09/28 07:28:28;;;;;;;10.10;4.50;;;24.40;99.90;;;;;;4989824;28;20267;-87
2023/09/28 07:30:54;;;;;;;7.57;4.30;;;24.60;99.90;;;;;;4992613;28;20181;-85
2023/09/28 07:33:20;;;;;;;10.60;5.38;;;24.90;99.90;;;;;;4993074;28;20173;-88
2023/09/28 07:35:46;;;;;;;6.50;4.90;;;25.00;99.90;;;;;;4992526;28;20188;-87
2023/09/28 07:38:12;;;;;;;8.65;5.45;;;25.00;99.90;;;;;;4994544;28;20707;-86
2023/09/28 07:40:37;;;;;;;6.32;5.80;;;25.00;99.90;;;;;;4993610;28;20177;-86
2023/09/28 07:43:03;;;;;;;5.35;4.28;;;25.20;99.90;;;;;;4992265;28;20555;-86
2023/09/28 07:45:30;;;;;;;9.35;4.32;;;25.40;99.90;;;;;;4992777;28;20255;-86
2023/09/28 07:47:56;;;;;;;5.63;4.55;;;25.60;99.90;;;;;;4997170;28;20207;-86
2023/09/28 07:50:21;;;;;;;6.15;4.80;;;25.90;99.90;;;;;;4995902;28;20181;-86
2023/09/28 07:52:47;;;;;;;5.88;4.82;;;26.10;99.90;;;;;;4996559;28;20177;-86
2023/09/28 07:55:14;;;;;;;7.45;5.03;;;26.20;99.90;;;;;;4994022;28;20196;-86
2023/09/28 07:57:40;;;;;;;6.88;3.80;;;26.30;99.90;;;;;;4996436;28;20181;-86
2023/09/28 08:00:07;;;;;;;5.75;4.60;;;26.40;99.90;;;;;;4996678;28;20188;-86
2023/09/28 08:02:33;;;;;;;7.32;4.05;;;26.40;99.90;;;;;;4994788;28;20196;-86
2023/09/28 08:04:58;;;;;;;6.70;4.75;;;26.30;99.90;;;;;;4994623;28;20173;-87
2023/09/28 08:07:25;;;;;;;6.15;4.25;;;26.10;99.90;;;;;;4994188;28;20208;-87
2023/09/28 08:09:51;;;;;;;6.85;4.32;;;26.10;99.90;;;;;;4992265;28;20190;-86
2023/09/28 08:12:17;;;;;;;10.90;4.90;;;26.00;99.90;;;;;;4994558;28;20182;-86
2023/09/28 08:14:42;;;;;;;6.18;4.60;;;26.00;99.90;;;;;;4995754;28;20259;-86
2023/09/28 08:17:09;;;;;;;6.65;4.32;;;25.90;99.90;;;;;;4987242;28;20402;-87
2023/09/28 08:19:36;;;;;;;8.00;4.30;;;25.70;99.90;;;;;;4991993;28;20180;-87
2023/09/28 08:22:03;;;;;;;9.52;5.07;;;25.30;99.90;;;;;;4994786;28;20212;-87
2023/09/28 08:24:29;;;;;;;7.47;3.63;;;25.00;99.90;;;;;;4995959;28;20176;-87
2023/09/28 08:26:55;;;;;;;7.18;4.20;;;24.60;99.90;;;;;;4994031;28;20208;-87
2023/09/28 08:29:21;;;;;;;6.70;4.65;;;24.30;99.90;;;;;;4995202;28;20185;-87
2023/09/28 08:31:46;;;;;;;6.00;5.28;;;24.10;99.90;;;;;;4996998;28;20173;-87
2023/09/28 08:34:13;;;;;;;4.90;4.20;;;24.00;99.90;;;;;;4994740;28;20184;-86
2023/09/28 08:36:38;;;;;;;6.80;4.20;;;24.00;99.90;;;;;;4992219;28;20193;-87
2023/09/28 08:39:06;;;;;;;8.20;3.83;;;23.80;99.90;;;;;;4997093;28;20316;-87
2023/09/28 08:41:41;;;;;;;6.45;3.75;;;23.80;99.90;;;;;;4996352;28;20233;-86
2023/09/28 08:44:07;;;;;;;4.97;4.47;;;23.70;99.90;;;;;;4994174;28;20179;-86
2023/09/28 08:46:38;;;;;;;9.52;4.53;;;23.70;99.90;;;;;;4993822;23;20225;-73
2023/09/28 08:49:08;;;;;;;6.82;4.32;;;23.80;99.90;;;;;;4980881;28;20196;-73
2023/09/28 08:51:38;;;;;;;9.55;3.97;;;23.60;99.90;;;;;;4986979;28;20188;-73
2023/09/28 08:54:05;;;;;;;8.32;5.22;;;23.40;99.90;;;;;;4991329;28;20239;-73
2023/09/28 08:56:42;;;;;;;6.68;5.00;;;23.40;99.90;;;;;;4990116;28;20192;-73
2023/09/28 08:59:09;;;;;;;9.43;4.57;;;23.40;99.90;;;;;;4975988;28;20537;-74
2023/09/28 09:01:36;;;;;;;5.43;4.93;;;23.40;99.90;;;;;;4991387;28;20283;-72
2023/09/28 09:04:03;;;;;;;5.90;4.65;;;23.60;99.90;;;;;;4986079;28;20197;-74
2023/09/28 09:06:30;;;;;;;7.70;5.00;;;24.00;99.90;;;;;;4991258;28;20179;-73
2023/09/28 09:09:03;;;;;;;6.65;3.88;;;24.50;99.90;;;;;;4990679;28;20184;-74
2023/09/28 09:11:30;;;;;;;9.73;4.00;;;24.90;99.90;;;;;;4989763;28;20172;-73
2023/09/28 09:13:57;;;;;;;11.85;4.70;;;25.40;99.90;;;;;;4991207;28;20200;-73
2023/09/28 09:16:24;;;;;;;12.07;4.88;;;25.70;99.90;;;;;;4991224;28;20526;-73
2023/09/28 09:18:52;;;;;;;7.35;3.55;;;25.60;99.90;;;;;;4984007;28;20184;-74
2023/09/28 09:21:18;;;;;;;7.75;3.65;;;25.60;99.90;;;;;;4994505;28;20205;-73
2023/09/28 09:23:59;;;;;;;6.65;4.07;;;25.40;99.90;;;;;;4992931;28;20641;-71
2023/09/28 09:26:25;;;;;;;6.65;4.00;;;25.10;99.90;;;;;;4994709;28;20667;-72
2023/09/28 09:28:51;;;;;;;7.72;4.88;;;24.60;99.90;;;;;;4994222;28;20207;-73
2023/09/28 09:31:24;;;;;;;5.38;4.38;;;24.50;99.90;;;;;;4981634;28;20176;-73
2023/09/28 09:33:50;;;;;;;6.30;4.28;;;24.60;99.90;;;;;;4984466;28;20239;-73
2023/09/28 09:36:18;;;;;;;9.63;4.85;;;24.80;99.90;;;;;;4994622;28;20188;-73
2023/09/28 09:38:44;;;;;;;9.27;4.90;;;24.90;99.90;;;;;;4994357;28;20449;-73
2023/09/28 09:41:11;;;;;;;7.70;4.88;;;24.80;99.90;;;;;;4994259;28;20227;-73
2023/09/28 09:43:40;;;;;;;8.40;4.13;;;24.50;99.90;;;;;;4994572;28;20173;-72
2023/09/28 09:46:06;;;;;;;6.63;3.97;;;24.30;99.90;;;;;;4994259;28;20169;-71
2023/09/28 09:48:40;;;;;;;10.30;5.00;;;24.00;99.90;;;;;;4986873;28;20177;-72
2023/09/28 09:51:10;;;;;;;8.48;5.00;;;23.90;99.90;;;;;;4990922;28;20178;-80
2023/09/28 09:53:42;;;;;;;13.68;4.97;;;24.00;99.90;;;;;;4981976;28;20598;-71
2023/09/28 09:56:09;;;;;;;5.40;4.43;;;24.10;99.90;;;;;;4994285;28;20179;-74
2023/09/28 09:58:41;;;;;;;6.53;4.40;;;24.00;99.90;;;;;;4988352;28;20652;-73
2023/09/28 10:01:12;;;;;;;7.22;3.97;;;23.70;99.90;;;;;;4993420;28;20188;-73
2023/09/28 10:03:53;;;;;;;11.75;4.32;;;23.40;99.90;;;;;;4994343;28;20264;-74
2023/09/28 10:06:23;;;;;;;6.28;4.22;;;23.30;99.90;;;;;;4980742;28;20281;-73
2023/09/28 10:08:50;;;;;;;6.22;4.57;;;23.30;99.90;;;;;;4993609;28;20204;-73
2023/09/28 10:11:17;;;;;;;8.65;5.32;;;23.30;99.90;;;;;;4986025;28;20263;-73
2023/09/28 10:13:43;;;;;;;9.80;5.00;;;23.50;99.90;;;;;;4993756;28;20548;-73
2023/09/28 10:16:15;;;;;;;16.05;5.13;;;23.70;99.90;;;;;;4993905;28;20311;-73
2023/09/28 10:18:45;;;;;;;16.83;4.80;;;24.00;99.90;;;;;;4993615;28;20498;-72
2023/09/28 10:21:11;;;;;;;9.77;4.18;;;24.20;99.90;;;;;;4977598;28;20259;-73
2023/09/28 10:23:37;;;;;;;6.30;4.10;;;24.50;99.90;;;;;;4993659;28;20525;-74
2023/09/28 10:26:12;;;;;;;10.27;4.00;;;24.50;99.90;;;;;;4985915;28;20268;-73
2023/09/28 10:29:06;;;;;;;5.18;3.55;;;24.50;99.90;;;;;;4993547;28;20635;-73
2023/09/28 10:31:39;;;;;;;8.23;4.10;;;24.40;99.90;;;;;;4992234;28;20559;-73
2023/09/28 10:34:06;;;;;;;8.25;4.30;;;24.30;99.90;;;;;;4989817;28;20200;-73
2023/09/28 10:36:33;;;;;;;11.30;4.43;;;24.20;99.90;;;;;;4988293;28;20185;-73
2023/09/28 10:39:05;;;;;;;7.05;3.67;;;24.20;99.90;;;;;;4991758;28;20199;-73
2023/09/28 10:41:31;;;;;;;5.85;3.80;;;24.30;99.90;;;;;;4987431;28;20180;-72
2023/09/28 10:43:56;;;;;;;8.30;4.47;;;24.60;99.90;;;;;;4993241;28;20215;-71
2023/09/28 10:46:23;;;;;;;10.55;4.25;;;24.90;99.90;;;;;;4993229;28;20197;-71
2023/09/28 10:48:51;;;;;;;12.32;4.07;;;25.10;99.90;;;;;;4992816;28;20632;-72
2023/09/28 10:51:18;;;;;;;11.02;4.00;;;25.30;99.90;;;;;;4993013;28;20169;-71
2023/09/28 10:53:44;;;;;;;12.07;4.18;;;25.40;99.90;;;;;;4984828;28;20205;-73
2023/09/28 10:56:10;;;;;;;6.53;3.50;;;25.60;99.90;;;;;;4993156;28;20536;-72
2023/09/28 10:58:39;;;;;;;9.88;4.75;;;25.60;99.90;;;;;;4993160;28;20224;-72
2023/09/28 11:01:06;;;;;;;9.05;4.45;;;25.60;99.90;;;;;;4992028;28;20204;-72
2023/09/28 11:03:33;;;;;;;5.50;3.90;;;25.60;99.90;;;;;;4993115;28;20173;-73
2023/09/28 11:06:03;;;;;;;6.65;4.25;;;25.70;99.90;;;;;;4992635;28;20207;-71
2023/09/28 11:08:32;;;;;;;9.90;3.90;;;25.90;99.90;;;;;;4991044;28;20258;-72
2023/09/28 11:11:01;;;;;;;11.52;4.50;;;26.10;99.90;;;;;;4992234;28;20228;-72
2023/09/28 11:13:27;;;;;;;9.32;4.15;;;26.10;99.90;;;;;;4992652;28;20208;-72
2023/09/28 11:15:53;;;;;;;6.15;3.42;;;26.20;99.90;;;;;;4992684;28;20686;-71
2023/09/28 11:18:21;;;;;;;6.55;3.72;;;26.50;99.90;;;;;;4992955;28;20184;-72
2023/09/28 11:20:47;;;;;;;12.02;4.53;;;26.50;99.90;;;;;;4983898;28;20200;-72
2023/09/28 11:23:12;;;;;;;5.38;3.58;;;26.40;99.90;;;;;;4992579;28;20189;-72
2023/09/28 11:25:44;;;;;;;5.43;3.80;;;26.30;99.90;;;;;;4992670;28;20215;-71
2023/09/28 11:28:11;;;;;;;6.57;4.05;;;26.50;99.90;;;;;;4992728;28;20180;-72
2023/09/28 11:30:37;;;;;;;9.52;5.13;;;26.70;99.90;;;;;;4992582;28;20281;-73
2023/09/28 11:33:04;;;;;;;6.57;3.85;;;26.80;99.90;;;;;;4992443;28;20212;-72
2023/09/28 11:35:38;;;;;;;12.88;4.30;;;26.70;99.90;;;;;;4990250;28;20243;-72
2023/09/28 11:38:09;;;;;;;11.75;4.30;;;26.80;99.90;;;;;;4992431;28;20250;-73
2023/09/28 11:40:37;;;;;;;7.55;4.90;;;26.90;99.90;;;;;;4990998;28;20339;-72
2023/09/28 11:43:03;;;;;;;9.85;4.82;;;27.00;99.90;;;;;;4991863;28;20659;-71
2023/09/28 11:45:31;;;;;;;7.30;4.00;;;27.10;99.90;;;;;;4992369;28;20187;-72
2023/09/28 11:47:57;;;;;;;5.95;4.00;;;27.30;99.90;;;;;;4990678;28;20271;-72
2023/09/28 11:50:26;;;;;;;9.05;4.93;;;27.10;99.90;;;;;;4992136;28;20327;-72
2023/09/28 11:52:52;;;;;;;8.65;4.43;;;26.90;99.90;;;;;;4991645;28;20215;-72
2023/09/28 11:55:18;;;;;;;8.85;4.40;;;26.60;99.90;;;;;;4992480;28;20547;-72
2023/09/28 11:57:44;;;;;;;10.20;4.43;;;26.60;99.90;;;;;;4990185;28;20179;-71
2023/09/28 12:00:18;;;;;;;9.98;3.97;;;26.70;99.90;;;;;;4990971;28;20668;-71
2023/09/28 12:02:45;;;;;;;7.03;3.97;;;27.00;99.90;;;;;;4991733;28;20664;-73
2023/09/28 12:05:11;;;;;;;8.43;4.40;;;26.90;99.90;;;;;;4988258;28;20207;-71
2023/09/28 12:07:37;;;;;;;6.72;4.40;;;26.90;99.90;;;;;;4990781;28;20181;-72
2023/09/28 12:10:04;;;;;;;8.35;4.63;;;26.80;99.90;;;;;;4982748;28;20292;-71
2023/09/28 12:12:30;;;;;;;5.80;4.25;;;26.80;99.90;;;;;;4991933;28;20196;-72
2023/09/28 12:14:55;;;;;;;5.85;4.13;;;26.70;99.90;;;;;;4989305;28;20530;-73
2023/09/28 12:17:22;;;;;;;8.32;4.80;;;26.70;99.90;;;;;;4983310;28;20200;-72
2023/09/28 12:19:47;;;;;;;8.23;5.63;;;26.90;99.90;;;;;;4991514;28;20188;-72
2023/09/28 12:22:13;;;;;;;6.45;4.47;;;27.00;99.90;;;;;;4991439;28;20630;-71
2023/09/28 12:24:40;;;;;;;9.85;4.43;;;27.30;99.90;;;;;;4991639;28;20667;-72
2023/09/28 12:27:06;;;;;;;4.70;3.75;;;27.50;99.90;;;;;;4991779;28;20173;-72
2023/09/28 12:29:32;;;;;;;7.55;4.13;;;27.60;99.90;;;;;;4986789;28;20204;-72
2023/09/28 12:31:58;;;;;;;8.45;4.85;;;27.40;99.90;;;;;;4990957;28;20217;-72
2023/09/28 12:34:26;;;;;;;6.68;4.18;;;27.30;99.90;;;;;;4991694;28;20256;-71
2023/09/28 12:36:57;;;;;;;9.13;4.80;;;27.40;99.90;;;;;;4991183;28;20180;-71
2023/09/28 12:39:23;;;;;;;8.88;4.00;;;27.40;99.90;;;;;;4991578;28;20572;-71
2023/09/28 12:41:49;;;;;;;6.90;4.28;;;27.40;99.90;;;;;;4989871;28;20176;-71